sensor_id;sensor_type;location;lat;lon;timestamp;temperature;humidity
4584;DHT22;2304;47.606;12.186;2023-11-22T00:04:14;8.10;82.70
4584;DHT22;2304;47.606;12.186;2023-11-22T00:09:17;8.10;82.90
4584;DHT22;2304;47.606;12.186;2023-11-22T00:14:23;8.10;84.00
4584;DHT22;2304;47.606;12.186;2023-11-22T00:19:25;8.10;84.40
4584;DHT22;2304;47.606;12.186;2023-11-22T00:24:28;8.00;83.70
4584;DHT22;2304;47.606;12.186;2023-11-22T00:29:30;7.90;83.90
4584;DHT22;2304;47.606;12.186;2023-11-22T00:34:32;7.90;84.40
4584;DHT22;2304;47.606;12.186;2023-11-22T00:39:35;7.90;84.90
4584;DHT22;2304;47.606;12.186;2023-11-22T00:44:37;7.90;84.70
4584;DHT22;2304;47.606;12.186;2023-11-22T00:49:39;8.00;84.10
4584;DHT22;2304;47.606;12.186;2023-11-22T00:54:42;7.90;84.40
4584;DHT22;2304;47.606;12.186;2023-11-22T00:59:44;7.80;84.80
4584;DHT22;2304;47.606;12.186;2023-11-22T01:04:46;7.80;85.70
4584;DHT22;2304;47.606;12.186;2023-11-22T01:09:49;7.80;86.10
4584;DHT22;2304;47.606;12.186;2023-11-22T01:14:50;7.80;85.70
4584;DHT22;2304;47.606;12.186;2023-11-22T01:19:52;7.90;85.40
4584;DHT22;2304;47.606;12.186;2023-11-22T01:24:55;7.90;85.00
4584;DHT22;2304;47.606;12.186;2023-11-22T01:29:57;7.90;85.20
4584;DHT22;2304;47.606;12.186;2023-11-22T01:34:59;7.90;85.60
4584;DHT22;2304;47.606;12.186;2023-11-22T01:40:03;7.90;84.90
4584;DHT22;2304;47.606;12.186;2023-11-22T01:45:06;7.90;84.60
4584;DHT22;2304;47.606;12.186;2023-11-22T01:50:08;7.90;84.50
4584;DHT22;2304;47.606;12.186;2023-11-22T01:55:12;7.90;84.70
4584;DHT22;2304;47.606;12.186;2023-11-22T02:00:17;7.90;84.40
4584;DHT22;2304;47.606;12.186;2023-11-22T02:05:19;7.90;83.70
4584;DHT22;2304;47.606;12.186;2023-11-22T02:10:23;7.90;83.40
4584;DHT22;2304;47.606;12.186;2023-11-22T02:15:25;7.80;82.50
4584;DHT22;2304;47.606;12.186;2023-11-22T02:20:28;7.80;83.20
4584;DHT22;2304;47.606;12.186;2023-11-22T02:25:31;7.80;83.20
4584;DHT22;2304;47.606;12.186;2023-11-22T02:30:34;7.80;83.40
4584;DHT22;2304;47.606;12.186;2023-11-22T02:35:36;7.80;82.60
4584;DHT22;2304;47.606;12.186;2023-11-22T02:40:39;7.80;82.70
4584;DHT22;2304;47.606;12.186;2023-11-22T02:45:41;7.80;84.00
4584;DHT22;2304;47.606;12.186;2023-11-22T02:50:44;7.80;83.60
4584;DHT22;2304;47.606;12.186;2023-11-22T02:55:47;7.80;84.00
4584;DHT22;2304;47.606;12.186;2023-11-22T03:00:49;7.90;83.80
4584;DHT22;2304;47.606;12.186;2023-11-22T03:05:55;8.00;83.70
4584;DHT22;2304;47.606;12.186;2023-11-22T03:10:58;8.00;83.50
4584;DHT22;2304;47.606;12.186;2023-11-22T03:16:01;8.00;83.80
4584;DHT22;2304;47.606;12.186;2023-11-22T03:21:05;8.00;84.20
4584;DHT22;2304;47.606;12.186;2023-11-22T03:26:08;7.90;84.10
4584;DHT22;2304;47.606;12.186;2023-11-22T03:31:10;7.90;83.70
4584;DHT22;2304;47.606;12.186;2023-11-22T03:36:12;8.00;83.80
4584;DHT22;2304;47.606;12.186;2023-11-22T03:41:15;8.00;83.50
4584;DHT22;2304;47.606;12.186;2023-11-22T03:46:17;8.00;84.00
4584;DHT22;2304;47.606;12.186;2023-11-22T03:51:19;7.90;84.10
4584;DHT22;2304;47.606;12.186;2023-11-22T03:56:22;7.80;84.50
4584;DHT22;2304;47.606;12.186;2023-11-22T04:01:24;7.80;85.10
4584;DHT22;2304;47.606;12.186;2023-11-22T04:06:26;7.80;85.20
4584;DHT22;2304;47.606;12.186;2023-11-22T04:11:29;7.90;85.50
4584;DHT22;2304;47.606;12.186;2023-11-22T04:16:31;7.90;85.60
4584;DHT22;2304;47.606;12.186;2023-11-22T04:21:33;8.00;85.10
4584;DHT22;2304;47.606;12.186;2023-11-22T04:26:36;8.00;85.90
4584;DHT22;2304;47.606;12.186;2023-11-22T04:31:38;7.90;85.40
4584;DHT22;2304;47.606;12.186;2023-11-22T04:36:40;7.90;85.40
4584;DHT22;2304;47.606;12.186;2023-11-22T04:41:43;7.80;85.40
4584;DHT22;2304;47.606;12.186;2023-11-22T04:46:45;7.80;85.90
4584;DHT22;2304;47.606;12.186;2023-11-22T04:51:47;7.90;86.20
4584;DHT22;2304;47.606;12.186;2023-11-22T04:56:51;7.90;85.00
4584;DHT22;2304;47.606;12.186;2023-11-22T05:01:53;7.90;84.90
4584;DHT22;2304;47.606;12.186;2023-11-22T05:06:55;7.80;84.10
4584;DHT22;2304;47.606;12.186;2023-11-22T05:11:59;7.70;83.40
4584;DHT22;2304;47.606;12.186;2023-11-22T05:17:00;7.60;82.50
4584;DHT22;2304;47.606;12.186;2023-11-22T05:22:03;7.60;81.80
4584;DHT22;2304;47.606;12.186;2023-11-22T05:27:06;7.60;82.50
4584;DHT22;2304;47.606;12.186;2023-11-22T05:32:08;7.50;81.70
4584;DHT22;2304;47.606;12.186;2023-11-22T05:37:10;7.50;81.30
4584;DHT22;2304;47.606;12.186;2023-11-22T05:42:13;7.40;80.00
4584;DHT22;2304;47.606;12.186;2023-11-22T05:47:15;7.30;79.80
4584;DHT22;2304;47.606;12.186;2023-11-22T05:52:19;7.30;79.30
4584;DHT22;2304;47.606;12.186;2023-11-22T05:57:24;7.10;79.50
4584;DHT22;2304;47.606;12.186;2023-11-22T06:02:26;7.10;79.50
4584;DHT22;2304;47.606;12.186;2023-11-22T06:07:27;6.90;78.80
4584;DHT22;2304;47.606;12.186;2023-11-22T06:12:31;6.90;79.20
4584;DHT22;2304;47.606;12.186;2023-11-22T06:17:33;6.70;79.10
4584;DHT22;2304;47.606;12.186;2023-11-22T06:22:34;6.70;80.10
4584;DHT22;2304;47.606;12.186;2023-11-22T06:27:42;6.60;79.30
4584;DHT22;2304;47.606;12.186;2023-11-22T06:32:44;6.50;79.80
4584;DHT22;2304;47.606;12.186;2023-11-22T06:37:46;6.60;80.50
4584;DHT22;2304;47.606;12.186;2023-11-22T06:42:49;6.50;80.00
4584;DHT22;2304;47.606;12.186;2023-11-22T06:47:52;6.50;79.30
4584;DHT22;2304;47.606;12.186;2023-11-22T06:52:53;6.50;79.20
4584;DHT22;2304;47.606;12.186;2023-11-22T06:57:56;6.30;78.40
4584;DHT22;2304;47.606;12.186;2023-11-22T07:02:58;6.30;78.30
4584;DHT22;2304;47.606;12.186;2023-11-22T07:08:00;6.20;78.30
4584;DHT22;2304;47.606;12.186;2023-11-22T07:13:03;6.10;77.70
4584;DHT22;2304;47.606;12.186;2023-11-22T07:18:06;6.20;78.30
4584;DHT22;2304;47.606;12.186;2023-11-22T07:23:08;6.10;77.70
4584;DHT22;2304;47.606;12.186;2023-11-22T07:28:15;6.10;78.10
4584;DHT22;2304;47.606;12.186;2023-11-22T07:33:17;6.20;78.20
4584;DHT22;2304;47.606;12.186;2023-11-22T07:38:20;6.20;77.90
4584;DHT22;2304;47.606;12.186;2023-11-22T07:43:24;6.00;77.60
4584;DHT22;2304;47.606;12.186;2023-11-22T07:48:25;6.10;78.00
4584;DHT22;2304;47.606;12.186;2023-11-22T07:53:28;6.00;78.00
4584;DHT22;2304;47.606;12.186;2023-11-22T07:58:32;6.00;78.00
4584;DHT22;2304;47.606;12.186;2023-11-22T08:03:33;6.10;77.80
4584;DHT22;2304;47.606;12.186;2023-11-22T08:08:35;6.10;77.70
4584;DHT22;2304;47.606;12.186;2023-11-22T08:13:41;6.10;77.60
4584;DHT22;2304;47.606;12.186;2023-11-22T08:18:45;6.20;77.50
4584;DHT22;2304;47.606;12.186;2023-11-22T08:23:47;6.30;78.00
4584;DHT22;2304;47.606;12.186;2023-11-22T08:28:50;6.30;78.50
4584;DHT22;2304;47.606;12.186;2023-11-22T08:33:52;6.40;78.30
4584;DHT22;2304;47.606;12.186;2023-11-22T08:38:54;6.40;77.00
4584;DHT22;2304;47.606;12.186;2023-11-22T08:43:57;6.40;77.30
4584;DHT22;2304;47.606;12.186;2023-11-22T08:48:59;6.30;76.60
4584;DHT22;2304;47.606;12.186;2023-11-22T08:54:03;6.20;76.50
4584;DHT22;2304;47.606;12.186;2023-11-22T08:59:06;6.20;77.20
4584;DHT22;2304;47.606;12.186;2023-11-22T09:04:08;6.10;76.60
4584;DHT22;2304;47.606;12.186;2023-11-22T09:09:10;6.10;76.90
4584;DHT22;2304;47.606;12.186;2023-11-22T09:14:17;6.10;76.70
4584;DHT22;2304;47.606;12.186;2023-11-22T09:19:21;6.20;77.30
4584;DHT22;2304;47.606;12.186;2023-11-22T09:24:23;6.10;76.90
4584;DHT22;2304;47.606;12.186;2023-11-22T09:29:26;6.20;77.50
4584;DHT22;2304;47.606;12.186;2023-11-22T09:34:28;6.20;76.90
4584;DHT22;2304;47.606;12.186;2023-11-22T09:39:31;6.30;76.20
4584;DHT22;2304;47.606;12.186;2023-11-22T09:44:34;6.20;76.40
4584;DHT22;2304;47.606;12.186;2023-11-22T09:49:39;6.20;76.30
4584;DHT22;2304;47.606;12.186;2023-11-22T09:54:42;6.20;76.80
4584;DHT22;2304;47.606;12.186;2023-11-22T09:59:47;6.30;76.70
4584;DHT22;2304;47.606;12.186;2023-11-22T10:04:53;6.30;76.30
4584;DHT22;2304;47.606;12.186;2023-11-22T10:09:55;6.30;75.60
4584;DHT22;2304;47.606;12.186;2023-11-22T10:15:11;6.40;76.10
4584;DHT22;2304;47.606;12.186;2023-11-22T10:20:13;6.50;75.50
4584;DHT22;2304;47.606;12.186;2023-11-22T10:25:15;6.70;75.80
4584;DHT22;2304;47.606;12.186;2023-11-22T10:30:20;6.60;75.20
4584;DHT22;2304;47.606;12.186;2023-11-22T10:35:22;6.50;75.60
4584;DHT22;2304;47.606;12.186;2023-11-22T10:40:24;6.40;75.20
4584;DHT22;2304;47.606;12.186;2023-11-22T10:45:30;6.40;75.90
4584;DHT22;2304;47.606;12.186;2023-11-22T10:50:32;6.50;75.90
4584;DHT22;2304;47.606;12.186;2023-11-22T10:55:35;6.50;75.60
4584;DHT22;2304;47.606;12.186;2023-11-22T11:00:40;6.50;75.10
4584;DHT22;2304;47.606;12.186;2023-11-22T11:05:50;6.70;75.20
4584;DHT22;2304;47.606;12.186;2023-11-22T11:10:53;6.70;74.00
4584;DHT22;2304;47.606;12.186;2023-11-22T11:15:58;6.60;73.40
4584;DHT22;2304;47.606;12.186;2023-11-22T11:21:07;6.60;73.50
4584;DHT22;2304;47.606;12.186;2023-11-22T11:26:16;6.60;73.20
4584;DHT22;2304;47.606;12.186;2023-11-22T11:31:22;6.60;72.70
4584;DHT22;2304;47.606;12.186;2023-11-22T11:36:25;6.50;72.70
4584;DHT22;2304;47.606;12.186;2023-11-22T11:41:29;6.50;73.00
4584;DHT22;2304;47.606;12.186;2023-11-22T11:46:34;6.60;73.30
4584;DHT22;2304;47.606;12.186;2023-11-22T11:51:36;6.70;73.80
4584;DHT22;2304;47.606;12.186;2023-11-22T11:56:38;6.90;73.60
4584;DHT22;2304;47.606;12.186;2023-11-22T12:01:42;6.80;72.30
4584;DHT22;2304;47.606;12.186;2023-11-22T12:06:44;6.80;71.90
4584;DHT22;2304;47.606;12.186;2023-11-22T12:11:47;6.90;71.10
4584;DHT22;2304;47.606;12.186;2023-11-22T12:16:52;6.90;70.70
4584;DHT22;2304;47.606;12.186;2023-11-22T12:21:55;6.90;70.60
4584;DHT22;2304;47.606;12.186;2023-11-22T12:26:57;7.30;71.50
4584;DHT22;2304;47.606;12.186;2023-11-22T12:32:00;7.90;69.40
4584;DHT22;2304;47.606;12.186;2023-11-22T12:37:02;8.30;68.70
4584;DHT22;2304;47.606;12.186;2023-11-22T12:42:04;8.30;66.20
4584;DHT22;2304;47.606;12.186;2023-11-22T12:47:08;8.80;66.90
4584;DHT22;2304;47.606;12.186;2023-11-22T12:52:11;9.20;65.20
4584;DHT22;2304;47.606;12.186;2023-11-22T12:57:14;9.30;63.30
4584;DHT22;2304;47.606;12.186;2023-11-22T13:02:17;8.90;62.20
4584;DHT22;2304;47.606;12.186;2023-11-22T13:07:20;8.60;63.30
4584;DHT22;2304;47.606;12.186;2023-11-22T13:12:22;8.80;64.50
4584;DHT22;2304;47.606;12.186;2023-11-22T13:17:26;9.20;62.80
4584;DHT22;2304;47.606;12.186;2023-11-22T13:22:28;9.50;62.00
4584;DHT22;2304;47.606;12.186;2023-11-22T13:27:30;9.90;60.70
4584;DHT22;2304;47.606;12.186;2023-11-22T13:32:33;9.80;59.40
4584;DHT22;2304;47.606;12.186;2023-11-22T13:37:36;9.50;59.40
4584;DHT22;2304;47.606;12.186;2023-11-22T13:42:38;9.30;59.40
4584;DHT22;2304;47.606;12.186;2023-11-22T13:47:42;9.00;59.80
4584;DHT22;2304;47.606;12.186;2023-11-22T13:52:44;9.00;60.00
4584;DHT22;2304;47.606;12.186;2023-11-22T13:57:47;8.70;60.20
4584;DHT22;2304;47.606;12.186;2023-11-22T14:02:51;8.70;60.40
4584;DHT22;2304;47.606;12.186;2023-11-22T14:07:56;8.50;61.10
4584;DHT22;2304;47.606;12.186;2023-11-22T14:12:59;8.10;60.50
4584;DHT22;2304;47.606;12.186;2023-11-22T14:18:03;7.80;60.90
4584;DHT22;2304;47.606;12.186;2023-11-22T14:23:05;7.60;62.00
4584;DHT22;2304;47.606;12.186;2023-11-22T14:28:08;7.50;62.40
4584;DHT22;2304;47.606;12.186;2023-11-22T14:33:11;7.40;62.70
4584;DHT22;2304;47.606;12.186;2023-11-22T14:38:13;7.30;63.10
4584;DHT22;2304;47.606;12.186;2023-11-22T14:43:15;7.30;63.20
4584;DHT22;2304;47.606;12.186;2023-11-22T14:48:18;7.30;63.20
4584;DHT22;2304;47.606;12.186;2023-11-22T14:53:20;7.20;63.40
4584;DHT22;2304;47.606;12.186;2023-11-22T14:58:22;7.10;63.50
4584;DHT22;2304;47.606;12.186;2023-11-22T15:03:25;7.10;64.20
4584;DHT22;2304;47.606;12.186;2023-11-22T15:08:28;7.10;64.20
4584;DHT22;2304;47.606;12.186;2023-11-22T15:13:30;7.10;64.40
4584;DHT22;2304;47.606;12.186;2023-11-22T15:18:33;7.00;63.90
4584;DHT22;2304;47.606;12.186;2023-11-22T15:23:36;7.00;64.20
4584;DHT22;2304;47.606;12.186;2023-11-22T15:28:37;6.80;64.40
4584;DHT22;2304;47.606;12.186;2023-11-22T15:33:41;6.80;65.60
4584;DHT22;2304;47.606;12.186;2023-11-22T15:38:43;6.80;65.20
4584;DHT22;2304;47.606;12.186;2023-11-22T15:43:45;6.80;65.60
4584;DHT22;2304;47.606;12.186;2023-11-22T15:48:48;6.90;65.90
4584;DHT22;2304;47.606;12.186;2023-11-22T15:53:50;6.70;65.90
4584;DHT22;2304;47.606;12.186;2023-11-22T15:58:52;6.60;66.00
4584;DHT22;2304;47.606;12.186;2023-11-22T16:03:55;6.60;66.80
4584;DHT22;2304;47.606;12.186;2023-11-22T16:08:57;6.50;67.00
4584;DHT22;2304;47.606;12.186;2023-11-22T16:13:59;6.40;67.40
4584;DHT22;2304;47.606;12.186;2023-11-22T16:19:02;6.40;67.80
4584;DHT22;2304;47.606;12.186;2023-11-22T16:24:06;6.30;68.20
4584;DHT22;2304;47.606;12.186;2023-11-22T16:29:08;6.30;68.80
4584;DHT22;2304;47.606;12.186;2023-11-22T16:34:11;6.40;68.90
4584;DHT22;2304;47.606;12.186;2023-11-22T16:39:13;6.30;68.70
4584;DHT22;2304;47.606;12.186;2023-11-22T16:44:15;6.20;68.80
4584;DHT22;2304;47.606;12.186;2023-11-22T16:49:21;6.30;69.20
4584;DHT22;2304;47.606;12.186;2023-11-22T16:54:22;6.10;69.20
4584;DHT22;2304;47.606;12.186;2023-11-22T16:59:24;6.20;69.70
4584;DHT22;2304;47.606;12.186;2023-11-22T17:04:27;6.10;70.00
4584;DHT22;2304;47.606;12.186;2023-11-22T17:09:29;6.00;69.80
4584;DHT22;2304;47.606;12.186;2023-11-22T17:14:31;6.00;70.30
4584;DHT22;2304;47.606;12.186;2023-11-22T17:19:35;6.00;70.10
4584;DHT22;2304;47.606;12.186;2023-11-22T17:24:37;6.10;70.10
4584;DHT22;2304;47.606;12.186;2023-11-22T17:29:38;6.10;70.40
4584;DHT22;2304;47.606;12.186;2023-11-22T17:34:42;6.10;70.10
4584;DHT22;2304;47.606;12.186;2023-11-22T17:39:44;6.20;69.50
4584;DHT22;2304;47.606;12.186;2023-11-22T17:44:46;6.10;69.90
4584;DHT22;2304;47.606;12.186;2023-11-22T17:49:51;6.10;70.00
4584;DHT22;2304;47.606;12.186;2023-11-22T17:54:53;6.00;70.00
4584;DHT22;2304;47.606;12.186;2023-11-22T17:59:54;6.00;70.00
4584;DHT22;2304;47.606;12.186;2023-11-22T18:04:58;6.00;70.30
4584;DHT22;2304;47.606;12.186;2023-11-22T18:09:59;6.00;70.90
4584;DHT22;2304;47.606;12.186;2023-11-22T18:15:01;6.00;70.90
4584;DHT22;2304;47.606;12.186;2023-11-22T18:20:06;6.10;71.00
4584;DHT22;2304;47.606;12.186;2023-11-22T18:25:10;6.10;70.70
4584;DHT22;2304;47.606;12.186;2023-11-22T18:30:12;6.00;70.70
4584;DHT22;2304;47.606;12.186;2023-11-22T18:35:16;6.00;70.60
4584;DHT22;2304;47.606;12.186;2023-11-22T18:40:18;5.90;70.40
4584;DHT22;2304;47.606;12.186;2023-11-22T18:45:20;5.90;71.00
4584;DHT22;2304;47.606;12.186;2023-11-22T18:50:23;5.90;71.00
4584;DHT22;2304;47.606;12.186;2023-11-22T18:55:25;5.90;70.80
4584;DHT22;2304;47.606;12.186;2023-11-22T19:00:27;5.90;70.80
4584;DHT22;2304;47.606;12.186;2023-11-22T19:05:30;5.90;71.00
4584;DHT22;2304;47.606;12.186;2023-11-22T19:10:32;5.90;70.50
4584;DHT22;2304;47.606;12.186;2023-11-22T19:15:41;5.90;70.40
4584;DHT22;2304;47.606;12.186;2023-11-22T19:20:44;5.90;70.90
4584;DHT22;2304;47.606;12.186;2023-11-22T19:25:46;6.00;71.20
4584;DHT22;2304;47.606;12.186;2023-11-22T19:30:50;5.90;70.80
4584;DHT22;2304;47.606;12.186;2023-11-22T19:35:53;5.90;70.50
4584;DHT22;2304;47.606;12.186;2023-11-22T19:40:55;6.00;71.00
4584;DHT22;2304;47.606;12.186;2023-11-22T19:45:56;6.00;73.60
4584;DHT22;2304;47.606;12.186;2023-11-22T19:51:00;5.90;72.10
4584;DHT22;2304;47.606;12.186;2023-11-22T19:56:01;5.90;70.90
4584;DHT22;2304;47.606;12.186;2023-11-22T20:01:03;5.90;70.80
4584;DHT22;2304;47.606;12.186;2023-11-22T20:06:10;5.90;70.90
4584;DHT22;2304;47.606;12.186;2023-11-22T20:11:12;5.90;70.60
4584;DHT22;2304;47.606;12.186;2023-11-22T20:16:14;5.80;70.40
4584;DHT22;2304;47.606;12.186;2023-11-22T20:21:17;5.80;70.70
4584;DHT22;2304;47.606;12.186;2023-11-22T20:26:20;5.80;71.00
4584;DHT22;2304;47.606;12.186;2023-11-22T20:31:23;5.80;71.40
4584;DHT22;2304;47.606;12.186;2023-11-22T20:36:26;5.90;71.50
4584;DHT22;2304;47.606;12.186;2023-11-22T20:41:28;5.90;71.50
4584;DHT22;2304;47.606;12.186;2023-11-22T20:46:31;5.90;71.50
4584;DHT22;2304;47.606;12.186;2023-11-22T20:51:34;6.10;71.50
4584;DHT22;2304;47.606;12.186;2023-11-22T20:56:36;5.80;71.10
4584;DHT22;2304;47.606;12.186;2023-11-22T21:01:38;5.80;70.90
4584;DHT22;2304;47.606;12.186;2023-11-22T21:06:42;5.70;71.80
4584;DHT22;2304;47.606;12.186;2023-11-22T21:11:44;5.70;71.40
4584;DHT22;2304;47.606;12.186;2023-11-22T21:16:46;5.80;71.60
4584;DHT22;2304;47.606;12.186;2023-11-22T21:21:49;5.80;71.30
4584;DHT22;2304;47.606;12.186;2023-11-22T21:26:51;5.80;71.30
4584;DHT22;2304;47.606;12.186;2023-11-22T21:31:53;5.90;72.50
4584;DHT22;2304;47.606;12.186;2023-11-22T21:36:57;5.90;71.80
4584;DHT22;2304;47.606;12.186;2023-11-22T21:41:58;5.90;71.80
4584;DHT22;2304;47.606;12.186;2023-11-22T21:47:02;5.90;71.30
4584;DHT22;2304;47.606;12.186;2023-11-22T21:52:06;5.90;72.10
4584;DHT22;2304;47.606;12.186;2023-11-22T21:57:08;5.80;73.20
4584;DHT22;2304;47.606;12.186;2023-11-22T22:02:09;5.80;72.30
4584;DHT22;2304;47.606;12.186;2023-11-22T22:07:12;5.70;72.40
4584;DHT22;2304;47.606;12.186;2023-11-22T22:12:14;5.80;72.30
4584;DHT22;2304;47.606;12.186;2023-11-22T22:17:16;6.00;72.20
4584;DHT22;2304;47.606;12.186;2023-11-22T22:22:19;5.70;71.90
4584;DHT22;2304;47.606;12.186;2023-11-22T22:27:22;5.70;72.00
4584;DHT22;2304;47.606;12.186;2023-11-22T22:32:24;5.60;72.20
4584;DHT22;2304;47.606;12.186;2023-11-22T22:37:28;5.60;72.10
4584;DHT22;2304;47.606;12.186;2023-11-22T22:42:30;5.60;72.70
4584;DHT22;2304;47.606;12.186;2023-11-22T22:47:32;5.50;73.20
4584;DHT22;2304;47.606;12.186;2023-11-22T22:52:35;5.50;73.00
4584;DHT22;2304;47.606;12.186;2023-11-22T22:57:37;5.50;73.20
4584;DHT22;2304;47.606;12.186;2023-11-22T23:02:39;5.50;72.80
4584;DHT22;2304;47.606;12.186;2023-11-22T23:07:42;5.60;72.70
4584;DHT22;2304;47.606;12.186;2023-11-22T23:12:44;5.80;73.10
4584;DHT22;2304;47.606;12.186;2023-11-22T23:17:46;5.80;73.10
4584;DHT22;2304;47.606;12.186;2023-11-22T23:22:49;5.80;72.80
4584;DHT22;2304;47.606;12.186;2023-11-22T23:27:53;5.80;72.90
4584;DHT22;2304;47.606;12.186;2023-11-22T23:32:55;5.90;72.70
4584;DHT22;2304;47.606;12.186;2023-11-22T23:37:58;6.00;73.30
4584;DHT22;2304;47.606;12.186;2023-11-22T23:43:00;6.10;72.70
4584;DHT22;2304;47.606;12.186;2023-11-22T23:48:04;6.00;72.30
4584;DHT22;2304;47.606;12.186;2023-11-22T23:53:07;5.90;72.30
4584;DHT22;2304;47.606;12.186;2023-11-22T23:58:09;5.90;73.10
